Time;durP1;ratioP1;P1;durP2;ratioP2;P2;SDS_P1;SDS_P2;PMS_P1;PMS_P2;Temp;Humidity;BMP_temperature;BMP_pressure;BME280_temperature;BME280_humidity;BME280_pressure;Samples;Min_cycle;Max_cycle;Signal;HPM_P1;HPM_P2
2021/05/20 00:02:13;;;;;;;1.50;1.20;;;10.60;99.90;;;;;;4894649;29;20838;-66
2021/05/20 00:04:39;;;;;;;2.70;1.57;;;10.70;99.90;;;;;;4895317;29;20442;-64
2021/05/20 00:07:04;;;;;;;1.20;1.07;;;10.70;99.90;;;;;;4895270;29;20830;-65
2021/05/20 00:09:30;;;;;;;1.53;1.20;;;10.70;99.90;;;;;;4894889;29;20202;-65
2021/05/20 00:11:56;;;;;;;1.57;1.43;;;10.70;99.90;;;;;;4894971;29;20706;-65
2021/05/20 00:14:22;;;;;;;1.90;1.70;;;10.70;99.90;;;;;;4895080;29;21323;-64
2021/05/20 00:16:48;;;;;;;1.90;1.40;;;10.70;99.90;;;;;;4894990;29;20449;-65
2021/05/20 00:19:14;;;;;;;1.30;1.20;;;10.60;99.90;;;;;;4895172;29;20472;-64
2021/05/20 00:21:39;;;;;;;1.47;1.30;;;10.60;99.90;;;;;;4895070;29;20187;-65
2021/05/20 00:24:05;;;;;;;1.87;1.77;;;10.60;99.90;;;;;;4894703;29;20206;-65
2021/05/20 00:26:32;;;;;;;1.67;1.57;;;10.50;99.90;;;;;;4895134;29;20199;-65
2021/05/20 00:28:58;;;;;;;2.63;1.93;;;10.50;99.90;;;;;;4898473;29;20487;-65
2021/05/20 00:31:24;;;;;;;2.07;1.80;;;10.40;99.90;;;;;;4898720;29;20457;-65
2021/05/20 00:33:49;;;;;;;1.97;1.23;;;10.40;99.90;;;;;;4898165;29;20439;-64
2021/05/20 00:36:15;;;;;;;1.73;1.60;;;10.30;99.90;;;;;;4899040;29;20183;-65
2021/05/20 00:38:40;;;;;;;2.30;1.73;;;10.30;99.90;;;;;;4898230;29;20233;-65
2021/05/20 00:41:06;;;;;;;2.43;1.73;;;10.30;99.90;;;;;;4897060;29;20641;-65
2021/05/20 00:43:32;;;;;;;1.90;1.57;;;10.30;99.90;;;;;;4898580;29;20187;-65
2021/05/20 00:45:57;;;;;;;1.57;1.47;;;10.30;99.90;;;;;;4898641;29;20459;-65
2021/05/20 00:48:23;;;;;;;1.87;1.70;;;10.20;99.90;;;;;;4898482;29;20575;-65
2021/05/20 00:50:49;;;;;;;1.50;1.33;;;10.30;99.90;;;;;;4898100;29;20187;-66
2021/05/20 00:53:15;;;;;;;2.13;1.67;;;10.20;99.90;;;;;;4898209;29;20179;-65
2021/05/20 00:55:42;;;;;;;1.83;1.43;;;10.20;99.90;;;;;;4898651;29;20190;-66
2021/05/20 00:58:09;;;;;;;2.00;1.43;;;10.20;99.90;;;;;;4898161;29;20553;-66
2021/05/20 01:00:35;;;;;;;1.90;1.70;;;10.20;99.90;;;;;;4897365;29;20534;-67
2021/05/20 01:03:01;;;;;;;1.23;1.13;;;10.30;99.90;;;;;;4897737;29;20522;-67
2021/05/20 01:05:27;;;;;;;2.70;2.50;;;10.30;99.90;;;;;;4897760;29;20804;-65
2021/05/20 01:07:53;;;;;;;1.47;1.37;;;10.30;99.90;;;;;;4898212;29;20210;-66
2021/05/20 01:10:19;;;;;;;1.63;1.53;;;10.30;99.90;;;;;;4897407;29;20568;-65
2021/05/20 01:12:45;;;;;;;1.83;1.60;;;10.40;99.90;;;;;;4897525;29;20526;-65
2021/05/20 01:15:29;;;;;;;2.07;1.43;;;10.40;99.90;;;;;;4897838;29;20190;-65
2021/05/20 01:17:59;;;;;;;2.53;1.20;;;10.40;99.90;;;;;;4898055;29;20203;-66
2021/05/20 01:20:30;;;;;;;1.40;1.30;;;10.30;99.90;;;;;;4897687;29;20465;-65
2021/05/20 01:23:13;;;;;;;2.10;1.60;;;10.30;99.90;;;;;;4897692;29;21060;-65
2021/05/20 01:25:40;;;;;;;2.03;1.90;;;10.30;99.90;;;;;;4897434;29;20993;-65
2021/05/20 01:28:17;;;;;;;1.80;1.33;;;10.20;99.90;;;;;;4897693;29;20489;-66
2021/05/20 01:30:45;;;;;;;3.43;2.13;;;10.10;99.90;;;;;;4897197;29;20439;-65
2021/05/20 01:33:11;;;;;;;2.00;1.33;;;10.10;99.90;;;;;;4897742;29;20450;-65
2021/05/20 01:35:37;;;;;;;4.67;2.93;;;10.10;99.90;;;;;;4897234;29;20439;-65
2021/05/20 01:38:41;;;;;;;2.30;1.90;;;10.10;99.90;;;;;;4897401;29;20210;-65
2021/05/20 01:41:11;;;;;;;1.80;1.70;;;10.10;99.90;;;;;;4897163;29;20447;-66
2021/05/20 01:43:39;;;;;;;1.97;1.80;;;10.10;99.90;;;;;;4897439;29;20435;-65
2021/05/20 01:46:06;;;;;;;2.53;1.83;;;10.10;99.90;;;;;;4897219;29;20470;-65
2021/05/20 01:48:40;;;;;;;2.37;1.60;;;10.00;99.90;;;;;;4897054;29;20451;-66
2021/05/20 01:51:10;;;;;;;2.63;2.10;;;9.90;99.90;;;;;;4897191;29;20443;-65
2021/05/20 01:53:37;;;;;;;1.97;1.60;;;9.80;99.90;;;;;;4896133;29;21020;-65
2021/05/20 01:56:03;;;;;;;2.77;1.70;;;9.80;99.90;;;;;;4897569;29;20952;-65
2021/05/20 01:58:29;;;;;;;1.60;1.50;;;9.70;99.90;;;;;;4897516;29;20483;-66
2021/05/20 02:00:55;;;;;;;2.00;1.80;;;9.60;99.90;;;;;;4897019;29;20863;-66
2021/05/20 02:03:21;;;;;;;2.53;1.50;;;9.50;99.90;;;;;;4896605;29;20186;-65
2021/05/20 02:05:46;;;;;;;1.97;1.87;;;9.40;99.90;;;;;;4896631;29;20700;-65
2021/05/20 02:08:12;;;;;;;1.70;1.57;;;9.30;99.90;;;;;;4896842;29;20451;-66
2021/05/20 02:10:38;;;;;;;1.87;1.63;;;9.30;99.90;;;;;;4896543;29;20790;-66
2021/05/20 02:13:04;;;;;;;2.53;1.40;;;9.20;99.90;;;;;;4896951;29;20659;-65
2021/05/20 02:15:29;;;;;;;1.83;1.57;;;9.20;99.90;;;;;;4896890;29;20195;-65
2021/05/20 02:17:55;;;;;;;1.93;1.70;;;9.10;99.90;;;;;;4896670;29;20210;-65
2021/05/20 02:20:21;;;;;;;1.90;1.77;;;9.10;99.90;;;;;;4896668;29;20175;-65
2021/05/20 02:22:48;;;;;;;1.57;1.47;;;9.10;99.90;;;;;;4896467;29;20665;-65
2021/05/20 02:25:14;;;;;;;2.10;1.63;;;9.00;99.90;;;;;;4896900;29;20503;-65
2021/05/20 02:27:40;;;;;;;4.07;1.40;;;9.00;99.90;;;;;;4895190;29;20555;-64
2021/05/20 02:30:06;;;;;;;2.23;1.40;;;9.00;99.90;;;;;;4896390;29;20182;-64
2021/05/20 02:32:32;;;;;;;1.80;1.63;;;8.90;99.90;;;;;;4896606;29;20688;-65
2021/05/20 02:34:57;;;;;;;1.80;1.70;;;8.90;99.90;;;;;;4896554;29;20439;-66
2021/05/20 02:37:23;;;;;;;1.50;1.40;;;8.90;99.90;;;;;;4896509;29;20179;-65
2021/05/20 02:39:48;;;;;;;2.13;1.93;;;8.90;99.90;;;;;;4896070;29;20658;-65
2021/05/20 02:42:14;;;;;;;2.97;1.30;;;8.90;99.90;;;;;;4896485;29;20554;-65
2021/05/20 02:44:39;;;;;;;1.63;1.53;;;8.90;99.90;;;;;;4896097;29;20278;-64
2021/05/20 02:47:05;;;;;;;2.73;1.37;;;8.80;99.90;;;;;;4896220;29;20206;-65
2021/05/20 02:49:31;;;;;;;4.07;1.47;;;8.80;99.90;;;;;;4896364;29;20576;-66
2021/05/20 02:51:57;;;;;;;2.40;1.23;;;8.80;99.90;;;;;;4895012;29;20601;-64
2021/05/20 02:54:22;;;;;;;1.40;1.30;;;8.80;99.90;;;;;;4895946;29;20183;-64
2021/05/20 02:56:48;;;;;;;1.43;1.23;;;8.80;99.90;;;;;;4895941;29;20490;-65
2021/05/20 02:59:14;;;;;;;1.37;1.27;;;8.80;99.90;;;;;;4895680;29;20206;-65
2021/05/20 03:01:43;;;;;;;1.73;1.33;;;8.90;99.90;;;;;;4895695;29;20197;-65
2021/05/20 03:04:09;;;;;;;2.80;1.50;;;8.90;99.90;;;;;;4895731;29;20179;-65
2021/05/20 03:06:34;;;;;;;1.40;1.30;;;8.90;99.90;;;;;;4895849;29;20459;-65
2021/05/20 03:09:00;;;;;;;1.37;1.27;;;9.00;99.90;;;;;;4895210;29;20451;-65
2021/05/20 03:11:27;;;;;;;2.80;1.47;;;9.00;99.90;;;;;;4895695;29;20183;-65
2021/05/20 03:13:53;;;;;;;2.03;1.43;;;9.00;99.90;;;;;;4895559;29;20187;-65
2021/05/20 03:16:18;;;;;;;1.40;1.30;;;9.00;99.90;;;;;;4895840;29;20475;-65
2021/05/20 03:18:44;;;;;;;1.20;1.10;;;9.00;99.90;;;;;;4895179;29;20242;-64
2021/05/20 03:21:10;;;;;;;2.33;1.80;;;9.00;99.90;;;;;;4895102;29;20183;-65
2021/05/20 03:23:35;;;;;;;2.03;1.50;;;8.90;99.90;;;;;;4895683;29;20251;-65
2021/05/20 03:26:01;;;;;;;1.37;1.27;;;8.90;99.90;;;;;;4895240;29;20262;-65
2021/05/20 03:28:26;;;;;;;1.80;1.70;;;8.90;99.90;;;;;;4895415;29;20221;-65
2021/05/20 03:30:52;;;;;;;3.17;2.10;;;8.80;99.90;;;;;;4895481;29;20206;-64
2021/05/20 03:33:17;;;;;;;3.17;2.63;;;8.70;99.90;;;;;;4894448;29;20179;-65
2021/05/20 03:35:43;;;;;;;3.67;2.70;;;8.60;99.90;;;;;;4893869;29;20175;-65
2021/05/20 03:38:08;;;;;;;2.07;1.70;;;8.50;99.90;;;;;;4895339;29;20301;-65
2021/05/20 03:40:34;;;;;;;1.93;1.80;;;8.50;99.90;;;;;;4895162;29;20190;-65
2021/05/20 03:42:59;;;;;;;2.17;2.07;;;8.50;99.90;;;;;;4895524;29;20246;-65
2021/05/20 03:45:25;;;;;;;1.73;1.63;;;8.50;99.90;;;;;;4895413;29;20199;-65
2021/05/20 03:47:50;;;;;;;2.17;1.60;;;8.50;99.90;;;;;;4895155;29;20211;-65
2021/05/20 03:50:16;;;;;;;5.13;1.97;;;8.50;99.90;;;;;;4894870;29;20214;-64
2021/05/20 03:52:41;;;;;;;2.97;1.80;;;8.50;99.90;;;;;;4895271;29;20530;-65
2021/05/20 03:55:07;;;;;;;1.60;1.50;;;8.50;99.90;;;;;;4894917;29;20178;-64
2021/05/20 03:57:33;;;;;;;1.97;1.77;;;8.50;99.90;;;;;;4894874;29;20193;-64
2021/05/20 03:59:58;;;;;;;3.47;2.00;;;8.50;99.90;;;;;;4894577;29;20712;-65
2021/05/20 04:02:24;;;;;;;2.20;2.00;;;8.50;99.90;;;;;;4897193;29;20547;-65
2021/05/20 04:04:49;;;;;;;2.47;1.90;;;8.60;99.90;;;;;;4899064;29;20187;-65
2021/05/20 04:07:15;;;;;;;2.27;1.80;;;8.60;99.90;;;;;;4899209;29;20179;-65
2021/05/20 04:09:41;;;;;;;2.20;1.67;;;8.70;99.90;;;;;;4898682;29;20213;-65
2021/05/20 04:12:07;;;;;;;2.37;1.77;;;8.70;99.90;;;;;;4899469;29;20199;-64
2021/05/20 04:14:33;;;;;;;2.30;1.60;;;8.70;99.90;;;;;;4899163;29;20526;-64
2021/05/20 04:16:58;;;;;;;2.23;1.70;;;8.70;99.90;;;;;;4899000;29;20191;-65
2021/05/20 04:19:24;;;;;;;3.07;2.37;;;8.80;99.90;;;;;;4898898;29;20206;-65
2021/05/20 04:21:49;;;;;;;2.47;2.03;;;8.80;99.90;;;;;;4898597;29;20183;-64
2021/05/20 04:24:15;;;;;;;4.97;2.53;;;8.80;99.90;;;;;;4899108;29;20654;-64
2021/05/20 04:26:40;;;;;;;5.67;2.30;;;8.90;99.90;;;;;;4898650;29;20210;-65
2021/05/20 04:29:08;;;;;;;2.27;2.03;;;8.90;99.90;;;;;;4898466;29;20578;-65
2021/05/20 04:31:34;;;;;;;2.50;2.30;;;8.90;99.90;;;;;;4898505;29;20546;-64
2021/05/20 04:33:59;;;;;;;11.83;2.13;;;8.90;99.90;;;;;;4899017;29;20437;-64
2021/05/20 04:36:25;;;;;;;1.97;1.50;;;8.90;99.90;;;;;;4898956;29;20522;-65
2021/05/20 04:38:50;;;;;;;1.87;1.40;;;9.00;99.90;;;;;;4898336;29;20211;-65
2021/05/20 04:41:16;;;;;;;1.63;1.53;;;9.00;99.90;;;;;;4898484;29;20179;-65
2021/05/20 04:43:41;;;;;;;1.70;1.60;;;9.00;99.90;;;;;;4898632;29;20183;-64
2021/05/20 04:46:07;;;;;;;2.90;1.40;;;8.90;99.90;;;;;;4898630;29;20562;-65
2021/05/20 04:48:32;;;;;;;1.77;1.67;;;8.90;99.90;;;;;;4898389;29;20227;-63
2021/05/20 04:51:00;;;;;;;2.13;1.43;;;9.00;99.90;;;;;;4898055;29;20535;-65
2021/05/20 04:53:26;;;;;;;1.77;1.43;;;9.10;99.90;;;;;;4898233;29;20179;-64
2021/05/20 04:55:52;;;;;;;2.23;1.70;;;9.20;99.90;;;;;;4898692;29;20439;-65
2021/05/20 04:58:17;;;;;;;1.73;1.60;;;9.20;99.90;;;;;;4898873;29;20210;-65
2021/05/20 05:00:43;;;;;;;1.13;1.10;;;9.20;99.90;;;;;;4897594;29;20674;-65
2021/05/20 05:03:08;;;;;;;1.57;1.47;;;9.20;99.90;;;;;;4898827;29;20254;-65
2021/05/20 05:05:34;;;;;;;5.90;2.30;;;9.20;99.90;;;;;;4898286;29;20225;-64
2021/05/20 05:08:00;;;;;;;2.67;2.47;;;9.20;99.90;;;;;;4896716;29;20199;-64
2021/05/20 05:10:25;;;;;;;1.80;1.30;;;9.10;99.90;;;;;;4898285;29;20527;-65
2021/05/20 05:12:51;;;;;;;2.30;2.10;;;9.20;99.90;;;;;;4898311;29;20186;-65
2021/05/20 05:15:17;;;;;;;1.50;1.40;;;9.20;99.90;;;;;;4897849;29;20182;-65
2021/05/20 05:17:42;;;;;;;1.80;1.70;;;9.30;99.90;;;;;;4898485;29;20199;-65
2021/05/20 05:20:08;;;;;;;4.00;2.03;;;9.40;99.90;;;;;;4896838;29;20178;-65
2021/05/20 05:22:34;;;;;;;2.47;1.67;;;9.40;99.90;;;;;;4897620;29;20277;-65
2021/05/20 05:25:00;;;;;;;2.53;1.73;;;9.40;99.90;;;;;;4897200;29;20537;-65
2021/05/20 05:27:25;;;;;;;2.23;2.03;;;9.40;99.90;;;;;;4897318;29;20221;-65
2021/05/20 05:29:51;;;;;;;1.67;1.57;;;9.60;99.90;;;;;;4897792;29;20178;-65
2021/05/20 05:32:17;;;;;;;2.17;1.97;;;9.80;99.90;;;;;;4896860;29;20665;-65
2021/05/20 05:34:42;;;;;;;3.23;1.47;;;10.10;99.90;;;;;;4897814;29;20183;-65
2021/05/20 05:37:07;;;;;;;1.67;1.57;;;10.50;99.90;;;;;;4899650;29;20179;-65
2021/05/20 05:39:33;;;;;;;1.70;1.40;;;10.90;99.90;;;;;;4891225;29;20249;-65
2021/05/20 05:41:59;;;;;;;2.17;1.97;;;11.20;99.90;;;;;;4880339;29;20190;-65
2021/05/20 05:44:24;;;;;;;3.60;3.30;;;11.40;99.90;;;;;;4883486;29;20179;-65
2021/05/20 05:46:50;;;;;;;2.07;1.90;;;11.50;99.90;;;;;;4897136;29;20214;-64
2021/05/20 05:49:42;;;;;;;2.10;1.90;;;11.60;99.90;;;;;;4897190;29;20215;-65
2021/05/20 05:52:05;;;;;;;2.27;2.07;;;11.60;99.90;;;;;;4883643;29;20657;-65
2021/05/20 05:54:31;;;;;;;2.47;2.27;;;11.90;99.90;;;;;;4897092;29;20590;-65
2021/05/20 05:56:57;;;;;;;1.80;1.63;;;12.00;99.90;;;;;;4884817;29;21005;-65
2021/05/20 05:59:22;;;;;;;1.90;1.80;;;11.90;99.90;;;;;;4889801;29;20705;-65
2021/05/20 06:01:48;;;;;;;3.03;2.77;;;11.80;99.90;;;;;;4895593;29;20555;-65
2021/05/20 06:04:17;;;;;;;3.00;2.00;;;11.90;99.90;;;;;;4896824;29;20554;-65
2021/05/20 06:06:43;;;;;;;2.87;2.07;;;11.80;99.90;;;;;;4896402;29;20351;-65
2021/05/20 06:09:09;;;;;;;1.90;1.50;;;11.80;99.90;;;;;;4896425;29;20455;-65
2021/05/20 06:11:35;;;;;;;3.77;3.43;;;11.80;99.90;;;;;;4895272;29;20439;-64
2021/05/20 06:14:08;;;;;;;4.23;3.50;;;11.80;99.90;;;;;;4880892;29;20167;-65
2021/05/20 06:16:39;;;;;;;2.30;1.60;;;11.80;99.90;;;;;;4881392;29;20445;-65
2021/05/20 06:19:05;;;;;;;1.90;1.73;;;11.80;99.90;;;;;;4893203;29;20980;-65
2021/05/20 06:21:31;;;;;;;1.60;1.50;;;11.80;99.90;;;;;;4896165;29;20522;-65
2021/05/20 06:23:57;;;;;;;2.23;1.80;;;11.90;99.90;;;;;;4896493;29;20206;-64
2021/05/20 06:26:23;;;;;;;3.63;1.97;;;11.90;99.90;;;;;;4896222;29;20195;-65
2021/05/20 06:28:49;;;;;;;1.80;1.70;;;12.10;99.90;;;;;;4895080;29;20451;-65
2021/05/20 06:31:14;;;;;;;2.10;2.00;;;12.20;99.90;;;;;;4895919;29;20443;-65
2021/05/20 06:33:40;;;;;;;1.70;1.60;;;12.40;99.90;;;;;;4896340;29;20653;-65
2021/05/20 06:36:06;;;;;;;2.00;1.70;;;12.60;99.90;;;;;;4896348;29;20182;-64
2021/05/20 06:38:32;;;;;;;3.20;2.10;;;12.60;99.90;;;;;;4895884;29;20227;-65
2021/05/20 06:40:59;;;;;;;2.90;2.13;;;13.10;99.90;;;;;;4896014;29;20443;-65
2021/05/20 06:43:24;;;;;;;2.00;1.90;;;13.10;99.90;;;;;;4895784;29;20623;-65
2021/05/20 06:45:50;;;;;;;2.10;1.90;;;13.00;99.90;;;;;;4896087;29;20470;-65
2021/05/20 06:48:18;;;;;;;3.47;2.00;;;13.20;99.90;;;;;;4896322;29;20213;-65
2021/05/20 06:50:44;;;;;;;2.37;1.90;;;13.50;99.90;;;;;;4895876;29;20242;-65
2021/05/20 06:53:10;;;;;;;1.80;1.70;;;13.60;99.90;;;;;;4895666;29;20435;-65
2021/05/20 06:55:36;;;;;;;2.43;1.50;;;13.50;99.90;;;;;;4896061;29;20446;-65
2021/05/20 07:00:40;;;;;;;1.97;1.87;;;13.50;99.90;;;;;;4895399;29;20438;-65
2021/05/20 07:03:06;;;;;;;3.47;1.60;;;13.50;99.90;;;;;;4895807;29;20449;-65
2021/05/20 07:05:32;;;;;;;2.67;1.47;;;13.80;99.90;;;;;;4895681;29;20459;-65
2021/05/20 07:08:00;;;;;;;1.77;1.67;;;13.90;99.90;;;;;;4895514;29;20209;-65
2021/05/20 07:10:26;;;;;;;4.33;1.57;;;13.70;99.90;;;;;;4895188;29;20438;-65
2021/05/20 07:12:52;;;;;;;1.77;1.60;;;13.40;99.90;;;;;;4895301;29;20858;-65
2021/05/20 07:15:18;;;;;;;2.50;2.30;;;13.60;99.90;;;;;;4895374;29;20435;-65
2021/05/20 07:17:43;;;;;;;2.13;1.60;;;13.60;99.90;;;;;;4894842;29;20578;-65
2021/05/20 07:20:09;;;;;;;1.60;1.50;;;13.80;99.90;;;;;;4895318;29;20191;-65
2021/05/20 07:22:35;;;;;;;2.20;2.00;;;14.10;99.90;;;;;;4894920;29;20182;-65
2021/05/20 07:25:04;;;;;;;3.60;1.80;;;14.30;99.90;;;;;;4895621;29;20215;-65
2021/05/20 07:27:30;;;;;;;2.30;2.20;;;14.50;99.90;;;;;;4895519;29;20183;-65
2021/05/20 07:29:56;;;;;;;2.30;2.10;;;14.30;99.90;;;;;;4888016;29;20440;-65
2021/05/20 07:32:21;;;;;;;2.50;2.10;;;14.20;99.90;;;;;;4886000;29;20446;-64
2021/05/20 07:34:47;;;;;;;2.33;2.13;;;14.00;99.90;;;;;;4889332;29;20183;-65
2021/05/20 07:37:13;;;;;;;2.23;1.70;;;13.80;99.90;;;;;;4880686;29;20342;-65
2021/05/20 07:39:39;;;;;;;1.97;1.87;;;13.60;99.90;;;;;;4894270;29;20238;-65
2021/05/20 07:42:05;;;;;;;1.97;1.80;;;13.50;99.90;;;;;;4888110;29;20498;-65
2021/05/20 07:44:31;;;;;;;1.93;1.67;;;13.50;99.90;;;;;;4887300;29;20426;-65
2021/05/20 07:46:57;;;;;;;3.80;3.40;;;13.60;99.90;;;;;;4892439;29;20485;-65
2021/05/20 07:49:25;;;;;;;2.47;1.93;;;14.00;99.90;;;;;;4880097;29;20551;-66
2021/05/20 07:51:51;;;;;;;2.03;1.80;;;14.20;99.90;;;;;;4883825;29;20431;-65
2021/05/20 07:54:17;;;;;;;2.70;2.13;;;14.30;99.90;;;;;;4879822;29;20450;-65
2021/05/20 07:56:44;;;;;;;1.80;1.50;;;14.20;99.90;;;;;;4884572;29;20946;-66
2021/05/20 07:59:10;;;;;;;1.60;1.43;;;14.40;99.90;;;;;;4884760;29;20218;-65
2021/05/20 08:01:36;;;;;;;3.10;2.13;;;14.40;99.90;;;;;;4879087;29;20440;-65
2021/05/20 08:04:11;;;;;;;1.80;1.70;;;14.50;99.90;;;;;;4888017;29;20186;-65
2021/05/20 08:07:49;;;;;;;2.13;2.00;;;14.70;99.90;;;;;;4882313;29;20491;-64
2021/05/20 08:09:35;;;;;;;2.33;1.57;;;14.50;99.90;;;;;;4885865;29;20988;-66
2021/05/20 08:12:01;;;;;;;1.70;1.60;;;14.70;99.90;;;;;;4894902;29;20431;-65
2021/05/20 08:14:27;;;;;;;2.43;2.00;;;15.30;99.90;;;;;;4894862;29;20434;-65
2021/05/20 08:16:53;;;;;;;1.93;1.70;;;15.90;99.90;;;;;;4894796;29;20225;-64
2021/05/20 08:19:18;;;;;;;2.70;2.50;;;16.20;99.90;;;;;;4894235;29;20230;-65
2021/05/20 08:21:44;;;;;;;1.90;1.80;;;16.30;99.90;;;;;;4894573;29;20193;-65
2021/05/20 08:24:10;;;;;;;1.80;1.50;;;16.80;99.90;;;;;;4893481;29;20310;-66
2021/05/20 08:26:35;;;;;;;2.53;1.73;;;17.10;99.90;;;;;;4894676;29;20218;-66
2021/05/20 08:29:02;;;;;;;1.20;1.10;;;17.20;99.90;;;;;;4872050;29;20471;-66
2021/05/20 08:31:29;;;;;;;1.70;1.33;;;16.90;99.90;;;;;;4872445;29;20270;-66
2021/05/20 08:33:55;;;;;;;2.73;2.00;;;16.70;99.90;;;;;;4887378;29;20764;-66
2021/05/20 08:36:21;;;;;;;1.60;1.50;;;16.80;99.90;;;;;;4890270;29;20439;-66
2021/05/20 08:38:47;;;;;;;3.53;1.67;;;16.80;99.90;;;;;;4889663;29;20534;-65
2021/05/20 08:41:20;;;;;;;2.07;1.50;;;16.70;99.90;;;;;;4894605;29;20646;-66
2021/05/20 08:43:46;;;;;;;1.33;1.23;;;16.60;99.90;;;;;;4893036;29;20218;-67
2021/05/20 08:46:12;;;;;;;1.53;1.30;;;16.70;99.90;;;;;;4894811;29;20458;-65
2021/05/20 08:48:37;;;;;;;1.23;1.13;;;17.00;99.90;;;;;;4892738;29;20458;-65
2021/05/20 08:51:03;;;;;;;1.43;1.17;;;17.40;99.90;;;;;;4883233;29;20188;-66
2021/05/20 08:53:29;;;;;;;2.03;1.20;;;17.80;99.90;;;;;;4888020;29;20247;-65
2021/05/20 08:55:55;;;;;;;1.60;1.50;;;17.80;99.90;;;;;;4880007;29;20479;-65
2021/05/20 08:58:25;;;;;;;2.70;1.50;;;17.60;99.90;;;;;;4891673;29;20214;-66
2021/05/20 09:00:51;;;;;;;1.00;1.00;;;17.20;99.90;;;;;;4898108;29;20187;-66
2021/05/20 09:03:16;;;;;;;1.23;1.13;;;16.80;99.90;;;;;;4898166;29;20434;-65
2021/05/20 09:05:43;;;;;;;2.30;1.37;;;16.50;99.90;;;;;;4896927;29;20462;-66
2021/05/20 09:08:11;;;;;;;2.83;1.60;;;16.20;99.90;;;;;;4892868;29;20686;-66
2021/05/20 09:10:39;;;;;;;2.50;2.30;;;16.10;99.90;;;;;;4889835;29;20432;-66
2021/05/20 09:13:14;;;;;;;1.87;1.77;;;15.90;99.90;;;;;;4892447;29;20435;-65
2021/05/20 09:15:41;;;;;;;1.40;1.30;;;16.20;99.90;;;;;;4894746;29;20434;-66
2021/05/20 09:18:16;;;;;;;3.40;1.47;;;16.10;99.90;;;;;;4895504;29;20462;-65
2021/05/20 09:20:59;;;;;;;2.47;1.67;;;16.20;99.90;;;;;;4891577;29;20442;-65
2021/05/20 09:23:27;;;;;;;1.93;1.83;;;16.60;99.90;;;;;;4897358;29;20439;-66
2021/05/20 09:26:02;;;;;;;1.40;1.30;;;16.90;99.90;;;;;;4897154;29;20451;-66
2021/05/20 09:28:46;;;;;;;3.10;1.30;;;16.80;99.90;;;;;;4889631;29;20455;-66
2021/05/20 09:31:35;;;;;;;2.23;1.37;;;17.20;99.90;;;;;;4892197;29;20434;-65
2021/05/20 09:34:16;;;;;;;1.67;1.20;;;17.20;99.90;;;;;;4896572;29;20439;-65
2021/05/20 09:36:49;;;;;;;1.53;1.27;;;16.90;99.90;;;;;;4897144;29;20447;-67
2021/05/20 09:39:17;;;;;;;1.27;1.17;;;17.00;99.90;;;;;;4889894;29;20848;-67
2021/05/20 09:41:43;;;;;;;2.77;1.63;;;17.10;99.90;;;;;;4887692;29;20472;-65
2021/05/20 09:44:29;;;;;;;2.23;1.60;;;16.90;99.90;;;;;;4893535;29;20996;-66
2021/05/20 09:46:55;;;;;;;1.30;1.20;;;16.50;99.90;;;;;;4897390;29;20843;-66
2021/05/20 09:49:25;;;;;;;1.53;1.23;;;16.60;99.90;;;;;;4892805;29;20566;-66
2021/05/20 09:52:23;;;;;;;3.70;3.40;;;16.80;99.90;;;;;;4898795;29;20457;-66
2021/05/20 09:54:48;;;;;;;1.50;1.40;;;17.00;99.90;;;;;;4898633;29;20424;-66
2021/05/20 09:57:34;;;;;;;2.17;1.20;;;17.00;99.90;;;;;;4892761;29;20445;-65
2021/05/20 09:59:59;;;;;;;1.60;1.50;;;17.00;99.90;;;;;;4894536;29;20684;-66
2021/05/20 10:02:25;;;;;;;1.63;1.50;;;16.90;99.90;;;;;;4896939;29;20435;-65
2021/05/20 10:04:53;;;;;;;3.40;1.13;;;17.20;99.90;;;;;;4889846;29;20188;-66
2021/05/20 10:07:29;;;;;;;2.97;1.40;;;17.80;99.90;;;;;;4883481;29;20297;-66
2021/05/20 10:09:56;;;;;;;2.00;1.43;;;18.10;99.70;;;;;;4893731;29;20436;-65
2021/05/20 10:12:23;;;;;;;1.40;1.30;;;18.00;99.70;;;;;;4895445;29;20439;-65
2021/05/20 10:14:49;;;;;;;8.70;7.80;;;17.90;99.10;;;;;;4896695;29;20435;-66
2021/05/20 10:17:18;;;;;;;1.60;1.50;;;18.00;99.20;;;;;;4896233;29;20526;-66
2021/05/20 10:19:45;;;;;;;1.90;1.80;;;17.90;97.40;;;;;;4890378;29;20461;-66
2021/05/20 10:22:13;;;;;;;2.67;2.47;;;17.60;98.80;;;;;;4885689;29;20535;-66
2021/05/20 10:24:41;;;;;;;3.17;2.87;;;17.90;98.80;;;;;;4895499;29;20439;-65
2021/05/20 10:27:09;;;;;;;2.10;1.90;;;19.10;98.50;;;;;;4896862;29;20467;-66
2021/05/20 10:29:35;;;;;;;2.07;1.43;;;21.70;95.50;;;;;;4892008;29;20458;-64
2021/05/20 10:32:02;;;;;;;1.47;1.37;;;24.60;83.20;;;;;;4893490;29;20438;-66
2021/05/20 10:34:27;;;;;;;6.37;5.77;;;25.70;62.60;;;;;;4892203;29;20438;-65
2021/05/20 10:37:03;;;;;;;1.20;1.10;;;25.40;59.30;;;;;;4891704;29;20457;-67
2021/05/20 10:39:29;;;;;;;5.23;0.93;;;25.50;56.70;;;;;;4892005;29;20210;-66
2021/05/20 10:41:56;;;;;;;0.90;0.90;;;24.60;56.30;;;;;;4896526;29;20777;-66
2021/05/20 10:44:22;;;;;;;1.30;1.30;;;22.20;59.30;;;;;;4896521;29;20183;-66
2021/05/20 10:46:57;;;;;;;1.43;1.33;;;20.80;61.30;;;;;;4896116;29;20546;-67
2021/05/20 10:49:45;;;;;;;1.30;1.20;;;19.90;66.10;;;;;;4885866;29;20451;-66
2021/05/20 10:52:37;;;;;;;1.40;1.30;;;19.20;68.40;;;;;;4883139;29;20443;-67
2021/05/20 10:55:05;;;;;;;1.43;1.33;;;19.00;72.00;;;;;;4895551;29;20428;-67
2021/05/20 10:57:48;;;;;;;1.77;1.67;;;20.50;70.60;;;;;;4894016;29;20534;-65
2021/05/20 11:00:41;;;;;;;1.23;1.13;;;20.60;68.50;;;;;;4891534;29;20438;-66
2021/05/20 11:03:08;;;;;;;0.80;0.80;;;20.40;67.50;;;;;;4893006;29;20490;-67
2021/05/20 11:05:40;;;;;;;0.90;0.90;;;21.20;66.70;;;;;;4895783;29;20455;-65
2021/05/20 11:08:28;;;;;;;0.87;0.87;;;23.00;61.30;;;;;;4897924;29;20470;-66
2021/05/20 11:10:54;;;;;;;1.33;1.20;;;22.40;60.90;;;;;;4894927;29;20431;-67
2021/05/20 11:13:36;;;;;;;0.80;0.80;;;22.80;56.20;;;;;;4895326;29;20482;-67
2021/05/20 11:16:15;;;;;;;1.03;1.03;;;23.40;56.10;;;;;;4885700;29;20763;-65
2021/05/20 11:18:41;;;;;;;0.80;0.80;;;23.10;55.90;;;;;;4891150;29;20609;-67
2021/05/20 11:21:07;;;;;;;0.97;0.90;;;23.10;56.90;;;;;;4895135;29;20431;-66
2021/05/20 11:23:35;;;;;;;1.23;1.07;;;22.70;59.50;;;;;;4895405;29;20554;-66
2021/05/20 11:26:01;;;;;;;1.80;1.30;;;21.60;61.70;;;;;;4895261;29;20631;-66
2021/05/20 11:28:26;;;;;;;1.13;1.03;;;20.80;64.80;;;;;;4892301;29;20546;-66
2021/05/20 11:30:59;;;;;;;1.80;1.37;;;20.00;67.00;;;;;;4894767;29;20183;-65
2021/05/20 11:33:28;;;;;;;1.13;0.97;;;19.70;66.50;;;;;;4895236;29;20179;-65
2021/05/20 11:38:26;;;;;;;1.93;1.10;;;18.80;70.80;;;;;;4891961;29;20470;-66
2021/05/20 11:40:53;;;;;;;1.00;1.00;;;18.60;71.00;;;;;;4894257;29;20881;-65
2021/05/20 11:43:32;;;;;;;0.80;0.80;;;18.60;66.20;;;;;;4895089;29;20474;-66
2021/05/20 11:45:58;;;;;;;1.30;1.20;;;19.10;67.10;;;;;;4895101;29;20480;-65
2021/05/20 11:48:23;;;;;;;2.20;1.73;;;20.00;66.90;;;;;;4891537;29;20977;-66
2021/05/20 11:50:53;;;;;;;0.87;0.87;;;22.20;62.30;;;;;;4889795;29;20453;-66
2021/05/20 11:53:19;;;;;;;1.07;0.70;;;25.00;56.60;;;;;;4895152;29;20274;-67
2021/05/20 11:55:46;;;;;;;1.20;0.80;;;27.20;53.40;;;;;;4894429;29;20530;-67
2021/05/20 11:58:13;;;;;;;1.50;1.10;;;29.10;48.30;;;;;;4892132;29;20459;-66
2021/05/20 12:00:38;;;;;;;1.20;1.10;;;29.40;46.10;;;;;;4890456;29;20475;-66
2021/05/20 12:03:04;;;;;;;0.77;0.77;;;30.70;42.20;;;;;;4895132;29;20431;-67
2021/05/20 12:05:30;;;;;;;0.97;0.80;;;31.00;42.60;;;;;;4894789;29;20206;-66
2021/05/20 12:07:56;;;;;;;1.57;1.47;;;31.50;39.90;;;;;;4891408;29;20210;-65
2021/05/20 12:10:24;;;;;;;1.17;1.17;;;31.40;38.80;;;;;;4892946;29;20225;-66
2021/05/20 12:13:01;;;;;;;0.93;0.93;;;30.20;39.50;;;;;;4887805;29;20175;-65
2021/05/20 12:15:28;;;;;;;0.70;0.70;;;27.50;41.50;;;;;;4894992;29;20443;-65
2021/05/20 12:18:00;;;;;;;1.67;1.57;;;26.20;43.50;;;;;;4891791;29;20503;-66
2021/05/20 12:20:26;;;;;;;1.03;1.03;;;26.80;44.40;;;;;;4885131;29;20435;-65
2021/05/20 12:22:53;;;;;;;1.03;0.80;;;27.80;42.00;;;;;;4895579;29;20431;-66
2021/05/20 12:25:24;;;;;;;1.00;0.90;;;27.50;40.50;;;;;;4898299;29;20501;-67
2021/05/20 12:27:52;;;;;;;1.97;0.97;;;28.40;40.90;;;;;;4895619;29;20465;-66
2021/05/20 12:30:29;;;;;;;0.90;0.90;;;26.90;42.20;;;;;;4886628;29;20511;-66
2021/05/20 12:33:06;;;;;;;2.03;1.30;;;26.10;43.80;;;;;;4895660;29;20525;-66
2021/05/20 12:35:32;;;;;;;0.70;0.70;;;24.40;46.40;;;;;;4894867;29;20445;-65
2021/05/20 12:38:06;;;;;;;1.90;1.23;;;22.40;48.80;;;;;;4895205;29;20788;-65
2021/05/20 12:40:33;;;;;;;0.93;0.90;;;21.50;51.00;;;;;;4898014;29;20438;-66
2021/05/20 12:43:17;;;;;;;2.57;1.20;;;20.70;52.70;;;;;;4898464;29;20439;-66
2021/05/20 12:45:45;;;;;;;1.00;0.80;;;19.90;54.00;;;;;;4885829;29;20458;-66
2021/05/20 12:48:35;;;;;;;1.50;1.20;;;19.60;56.80;;;;;;4892327;29;20463;-66
2021/05/20 12:51:19;;;;;;;1.20;1.20;;;19.20;57.60;;;;;;4891474;29;20558;-66
2021/05/20 12:53:52;;;;;;;1.20;1.10;;;19.00;59.00;;;;;;4891029;29;20536;-66
2021/05/20 12:56:21;;;;;;;1.20;0.97;;;18.90;60.60;;;;;;4885198;29;20446;-66
2021/05/20 12:59:13;;;;;;;3.73;1.30;;;18.80;59.90;;;;;;4891334;29;21106;-65
2021/05/20 13:01:50;;;;;;;1.90;1.23;;;18.80;60.10;;;;;;4894775;29;20470;-65